Louis Jolliet — VA7153 — position and weather

sailwx.info

Track history (hours):
 
Tides and Currents Weather Stations Pressure Air Temp Water Temp Dewpoint Dewpoint Depression Visibility Wind Speed Wind Dir Waves Ship Positions

Louis Jolliet

Last reported at 2014-Jul-24 12:33 UTC. Time now 2014-Jul-25 01:33 UTC.
Position N 46°34' W 072°08'.

Type: Passenger vessel. MMSI: 316013356.

Date/timePositionNaut miles runAvg speedWind from/ knotsBaromVisibWave heightAir tempDewpointWater temp
2014-Jul-24 12:33N 46°34' W 072°08'1111.0
2014-Jul-24 11:33N 46°26' W 072°20'1211.9
2014-Jul-24 10:33N 46°19' W 072°33'1212.3
2014-Jul-24 09:33N 46°13' W 072°49'3712.1
2014-Jul-24 06:32N 45°45' W 073°23'1212.4
2014-Jul-24 05:33N 45°35' W 073°30'5 4.4
2014-Jul-24 04:31N 45°30' W 073°33'0 0.0
2014-Jul-24 03:29N 45°30' W 073°33'2 2.1
2014-Jul-24 02:33N 45°32' W 073°32'2 2.1
2014-Jul-24 01:34N 45°34' W 073°31'4 3.8
2014-Jul-24 00:34N 45°38' W 073°29'8 7.8
2014-Jul-23 23:34N 45°30' W 073°33'0 0.0
2014-Jul-23 22:34N 45°30' W 073°33'0 0.0
2014-Jul-23 21:34N 45°30' W 073°33'0 0.0
2014-Jul-23 20:34N 45°30' W 073°33'0 0.0
2014-Jul-23 19:33N 45°30' W 073°33'6 5.7
2014-Jul-23 18:34N 45°36' W 073°30'8 8.4
2014-Jul-23 17:33N 45°44' W 073°26'9 8.7
2014-Jul-23 16:34N 45°50' W 073°17'9 8.5
2014-Jul-23 15:33N 45°58' W 073°12'12 8.2
2014-Jul-23 14:04N 46°06' W 072°59'4 8.5
2014-Jul-23 13:33N 46°10' W 072°56'9 9.0
2014-Jul-23 12:33N 46°15' W 072°45'9 8.9
2014-Jul-23 11:33N 46°18' W 072°34'8 8.3
2014-Jul-23 10:33N 46°24' W 072°24'8 8.0
2014-Jul-23 09:33N 46°28' W 072°15'  
2014-Jul-20 08:22N 46°05' W 073°01'1011.9
2014-Jul-20 07:32N 45°58' W 073°12'1312.9
2014-Jul-20 06:34N 45°47' W 073°21'1313.2
2014-Jul-20 05:34N 45°36' W 073°30'6 5.8
2014-Jul-20 04:33N 45°30' W 073°33'0 0.0
2014-Jul-20 03:33N 45°30' W 073°33'2 2.0
2014-Jul-20 02:34N 45°32' W 073°32'2 1.8
2014-Jul-20 01:33N 45°34' W 073°31'4 4.2
2014-Jul-20 00:33N 45°38' W 073°29'8 7.9
2014-Jul-19 23:34N 45°30' W 073°33'0 0.0
2014-Jul-19 22:33N 45°30' W 073°33'0 0.0
2014-Jul-19 21:34N 45°30' W 073°33'0 0.0
2014-Jul-19 20:33N 45°30' W 073°33'0 0.0
2014-Jul-19 19:33N 45°30' W 073°33'0 0.0
2014-Jul-19 18:33N 45°30' W 073°33'4 4.1
2014-Jul-19 17:33N 45°34' W 073°31'8 8.4
2014-Jul-19 16:33N 45°42' W 073°27'9 8.9
2014-Jul-19 15:33N 45°49' W 073°19'9 8.7
2014-Jul-19 14:33N 45°57' W 073°13'16 8.2
2014-Jul-19 12:33N 46°09' W 072°57'14 9.4
2014-Jul-19 11:07N 46°16' W 072°40'34 0.7
2014-Jul-17 12:11N 46°35' W 072°00'1014.3
2014-Jul-17 11:29N 46°31' W 072°13'1212.6
2014-Jul-17 10:33N 46°23' W 072°26'1312.6
2014-Jul-17 09:33N 46°16' W 072°40'2412.1
2014-Jul-17 07:33N 46°02' W 073°09'1313.0
2014-Jul-17 06:33N 45°50' W 073°17'1313.3
2014-Jul-17 05:33N 45°39' W 073°28'10 9.6
2014-Jul-17 04:33N 45°30' W 073°33'0 0.0
2014-Jul-17 03:33N 45°30' W 073°33'2 2.0
2014-Jul-17 02:33N 45°32' W 073°32'2 1.6
2014-Jul-17 01:33N 45°34' W 073°31'5 4.7
2014-Jul-17 00:33N 45°38' W 073°29'8 8.2
2014-Jul-16 23:33N 45°30' W 073°33'0 0.0
2014-Jul-16 22:33N 45°30' W 073°33'0 0.0
2014-Jul-16 21:33N 45°30' W 073°33'0 0.0
2014-Jul-16 20:33N 45°30' W 073°33'2 2.3
2014-Jul-16 19:33N 45°33' W 073°32'8 8.1
2014-Jul-16 18:33N 45°40' W 073°28'8 8.4
2014-Jul-16 17:33N 45°47' W 073°21'9 8.7
2014-Jul-16 16:33N 45°54' W 073°13'9 8.8
2014-Jul-16 15:33N 46°03' W 073°09'9 8.7
2014-Jul-16 14:32N 46°07' W 072°58'8 8.6
2014-Jul-16 13:33N 46°13' W 072°49'9 9.2
2014-Jul-16 12:33N 46°16' W 072°37'9 8.8
2014-Jul-16 11:33N 46°23' W 072°28'9 8.6
2014-Jul-16 10:33N 46°26' W 072°17'9 8.6
2014-Jul-16 09:33N 46°33' W 072°09'  
Track history (hours):
 
Tides and Currents Weather Stations Pressure Air Temp Water Temp Dewpoint Dewpoint Depression Visibility Wind Speed Wind Dir Waves Ship Positions

Louis Jolliet

Last reported at 2014-Jul-24 12:33 UTC. Time now 2014-Jul-25 01:33 UTC.
Position N 46°34' W 072°08'.

Type: Passenger vessel. MMSI: 316013356.

Date/timePositionNaut miles runAvg speedWind from/ knotsBaromVisibWave heightAir tempDewpointWater temp
2014-Jul-24 12:33N 46°34' W 072°08'1111.0
2014-Jul-24 11:33N 46°26' W 072°20'1211.9
2014-Jul-24 10:33N 46°19' W 072°33'1212.3
2014-Jul-24 09:33N 46°13' W 072°49'3712.1
2014-Jul-24 06:32N 45°45' W 073°23'1212.4
2014-Jul-24 05:33N 45°35' W 073°30'5 4.4
2014-Jul-24 04:31N 45°30' W 073°33'0 0.0
2014-Jul-24 03:29N 45°30' W 073°33'2 2.1
2014-Jul-24 02:33N 45°32' W 073°32'2 2.1
2014-Jul-24 01:34N 45°34' W 073°31'4 3.8
2014-Jul-24 00:34N 45°38' W 073°29'8 7.8
2014-Jul-23 23:34N 45°30' W 073°33'0 0.0
2014-Jul-23 22:34N 45°30' W 073°33'0 0.0
2014-Jul-23 21:34N 45°30' W 073°33'0 0.0
2014-Jul-23 20:34N 45°30' W 073°33'0 0.0
2014-Jul-23 19:33N 45°30' W 073°33'6 5.7
2014-Jul-23 18:34N 45°36' W 073°30'8 8.4
2014-Jul-23 17:33N 45°44' W 073°26'9 8.7
2014-Jul-23 16:34N 45°50' W 073°17'9 8.5
2014-Jul-23 15:33N 45°58' W 073°12'12 8.2
2014-Jul-23 14:04N 46°06' W 072°59'4 8.5
2014-Jul-23 13:33N 46°10' W 072°56'9 9.0
2014-Jul-23 12:33N 46°15' W 072°45'9 8.9
2014-Jul-23 11:33N 46°18' W 072°34'8 8.3
2014-Jul-23 10:33N 46°24' W 072°24'8 8.0
2014-Jul-23 09:33N 46°28' W 072°15'  
2014-Jul-20 08:22N 46°05' W 073°01'1011.9
2014-Jul-20 07:32N 45°58' W 073°12'1312.9
2014-Jul-20 06:34N 45°47' W 073°21'1313.2
2014-Jul-20 05:34N 45°36' W 073°30'6 5.8
2014-Jul-20 04:33N 45°30' W 073°33'0 0.0
2014-Jul-20 03:33N 45°30' W 073°33'2 2.0
2014-Jul-20 02:34N 45°32' W 073°32'2 1.8
2014-Jul-20 01:33N 45°34' W 073°31'4 4.2
2014-Jul-20 00:33N 45°38' W 073°29'8 7.9
2014-Jul-19 23:34N 45°30' W 073°33'0 0.0
2014-Jul-19 22:33N 45°30' W 073°33'0 0.0
2014-Jul-19 21:34N 45°30' W 073°33'0 0.0
2014-Jul-19 20:33N 45°30' W 073°33'0 0.0
2014-Jul-19 19:33N 45°30' W 073°33'0 0.0
2014-Jul-19 18:33N 45°30' W 073°33'4 4.1
2014-Jul-19 17:33N 45°34' W 073°31'8 8.4
2014-Jul-19 16:33N 45°42' W 073°27'9 8.9
2014-Jul-19 15:33N 45°49' W 073°19'9 8.7
2014-Jul-19 14:33N 45°57' W 073°13'16 8.2
2014-Jul-19 12:33N 46°09' W 072°57'14 9.4
2014-Jul-19 11:07N 46°16' W 072°40'34 0.7
2014-Jul-17 12:11N 46°35' W 072°00'1014.3
2014-Jul-17 11:29N 46°31' W 072°13'1212.6
2014-Jul-17 10:33N 46°23' W 072°26'1312.6
2014-Jul-17 09:33N 46°16' W 072°40'2412.1
2014-Jul-17 07:33N 46°02' W 073°09'1313.0
2014-Jul-17 06:33N 45°50' W 073°17'1313.3
2014-Jul-17 05:33N 45°39' W 073°28'10 9.6
2014-Jul-17 04:33N 45°30' W 073°33'0 0.0
2014-Jul-17 03:33N 45°30' W 073°33'2 2.0
2014-Jul-17 02:33N 45°32' W 073°32'2 1.6
2014-Jul-17 01:33N 45°34' W 073°31'5 4.7
2014-Jul-17 00:33N 45°38' W 073°29'8 8.2
2014-Jul-16 23:33N 45°30' W 073°33'0 0.0
2014-Jul-16 22:33N 45°30' W 073°33'0 0.0
2014-Jul-16 21:33N 45°30' W 073°33'0 0.0
2014-Jul-16 20:33N 45°30' W 073°33'2 2.3
2014-Jul-16 19:33N 45°33' W 073°32'8 8.1
2014-Jul-16 18:33N 45°40' W 073°28'8 8.4
2014-Jul-16 17:33N 45°47' W 073°21'9 8.7
2014-Jul-16 16:33N 45°54' W 073°13'9 8.8
2014-Jul-16 15:33N 46°03' W 073°09'9 8.7
2014-Jul-16 14:32N 46°07' W 072°58'8 8.6
2014-Jul-16 13:33N 46°13' W 072°49'9 9.2
2014-Jul-16 12:33N 46°16' W 072°37'9 8.8
2014-Jul-16 11:33N 46°23' W 072°28'9 8.6
2014-Jul-16 10:33N 46°26' W 072°17'9 8.6
2014-Jul-16 09:33N 46°33' W 072°09'  

Dump ship's entire track history